Time;durP1;ratioP1;P1;durP2;ratioP2;P2;SDS_P1;SDS_P2;PMS_P1;PMS_P2;Temp;Humidity;BMP_temperature;BMP_pressure;BME280_temperature;BME280_humidity;BME280_pressure;Samples;Min_cycle;Max_cycle;Signal;HPM_P1;HPM_P2
2023/04/19 00:01:27;;;;;;;17.38;10.18;;;10.20;99.90;;;;;;5016556;28;20100;-56
2023/04/19 00:03:53;;;;;;;17.65;10.10;;;10.10;99.90;;;;;;5029281;28;20040;-58
2023/04/19 00:06:20;;;;;;;18.10;10.68;;;10.10;99.90;;;;;;5015517;28;20038;-55
2023/04/19 00:08:45;;;;;;;20.08;10.82;;;10.10;99.90;;;;;;5016782;28;20100;-58
2023/04/19 00:11:11;;;;;;;14.93;9.73;;;10.10;99.90;;;;;;5016874;28;20739;-58
2023/04/19 00:13:37;;;;;;;18.45;10.43;;;10.00;99.90;;;;;;5016946;28;20462;-56
2023/04/19 00:16:03;;;;;;;18.27;10.38;;;10.00;99.90;;;;;;5016780;28;20034;-55
2023/04/19 00:18:29;;;;;;;17.27;13.38;;;10.00;99.90;;;;;;5016498;28;20069;-56
2023/04/19 00:20:55;;;;;;;16.02;10.77;;;9.90;99.90;;;;;;5015392;28;20069;-56
2023/04/19 00:23:21;;;;;;;17.00;10.32;;;10.00;99.90;;;;;;5014548;28;20038;-54
2023/04/19 00:25:48;;;;;;;17.35;10.68;;;9.90;99.90;;;;;;5016652;28;20033;-52
2023/04/19 00:28:13;;;;;;;15.88;9.90;;;9.90;99.90;;;;;;5016869;28;20732;-56
2023/04/19 00:30:39;;;;;;;16.63;12.15;;;9.90;99.90;;;;;;5016607;28;20133;-57
2023/04/19 00:33:11;;;;;;;19.85;10.35;;;9.90;99.90;;;;;;5015671;28;20033;-58
2023/04/19 00:35:38;;;;;;;19.40;10.43;;;9.80;99.90;;;;;;5022262;28;20041;-53
2023/04/19 00:38:04;;;;;;;17.42;10.48;;;9.80;99.90;;;;;;5016500;28;20046;-55
2023/04/19 00:40:31;;;;;;;14.48;12.45;;;9.80;99.90;;;;;;5016770;28;20041;-54
2023/04/19 00:42:56;;;;;;;18.58;10.98;;;9.80;99.90;;;;;;5015795;28;20037;-54
2023/04/19 00:45:22;;;;;;;17.17;10.70;;;9.70;99.90;;;;;;5012718;28;20041;-54
2023/04/19 00:47:48;;;;;;;17.45;11.27;;;9.70;99.90;;;;;;5013168;28;20604;-56
2023/04/19 00:50:14;;;;;;;18.58;11.50;;;9.60;99.90;;;;;;5012158;28;20400;-56
2023/04/19 00:52:40;;;;;;;19.65;11.07;;;9.60;99.90;;;;;;5012451;28;20041;-56
2023/04/19 00:55:07;;;;;;;16.35;10.55;;;9.60;99.90;;;;;;5012712;28;20038;-54
2023/04/19 00:57:33;;;;;;;17.90;10.60;;;9.60;99.90;;;;;;5012948;28;20053;-56
2023/04/19 00:59:59;;;;;;;17.85;10.88;;;9.50;99.90;;;;;;5013309;28;20054;-56
2023/04/19 01:02:24;;;;;;;17.20;10.73;;;9.50;99.90;;;;;;5013000;28;20042;-59
2023/04/19 01:04:50;;;;;;;17.20;10.52;;;9.50;99.90;;;;;;5012866;28;20045;-54
2023/04/19 01:07:18;;;;;;;16.60;11.18;;;9.50;99.90;;;;;;5013166;28;20081;-58
2023/04/19 01:09:44;;;;;;;17.33;10.43;;;9.40;99.90;;;;;;5012823;28;20034;-57
2023/04/19 01:12:10;;;;;;;17.15;10.63;;;9.40;99.90;;;;;;5012202;28;20401;-56
2023/04/19 01:14:36;;;;;;;15.13;9.63;;;9.40;99.90;;;;;;5012964;28;20204;-55
2023/04/19 01:17:01;;;;;;;17.33;9.95;;;9.40;99.90;;;;;;5012418;28;20065;-53
2023/04/19 01:19:27;;;;;;;16.25;9.88;;;9.30;99.90;;;;;;5012482;28;20073;-56
2023/04/19 01:21:55;;;;;;;15.77;9.65;;;9.40;99.90;;;;;;5012427;28;20048;-56
2023/04/19 01:24:20;;;;;;;17.15;10.52;;;9.30;99.90;;;;;;5012791;28;20069;-58
2023/04/19 01:26:46;;;;;;;16.58;10.05;;;9.30;99.90;;;;;;5013034;28;20084;-51
2023/04/19 01:29:12;;;;;;;15.57;9.52;;;9.30;99.90;;;;;;5010677;28;20046;-58
2023/04/19 01:31:38;;;;;;;16.73;10.00;;;9.20;99.90;;;;;;5012296;28;20073;-56
2023/04/19 01:34:04;;;;;;;16.95;9.77;;;9.20;99.90;;;;;;5011895;28;20038;-53
2023/04/19 01:36:30;;;;;;;15.07;9.00;;;9.30;99.90;;;;;;5009573;28;20553;-53
2023/04/19 01:38:57;;;;;;;16.42;9.23;;;9.30;99.90;;;;;;5012451;28;20129;-56
2023/04/19 01:41:25;;;;;;;16.38;9.60;;;9.40;99.90;;;;;;5012261;28;20087;-53
2023/04/19 01:43:51;;;;;;;18.15;9.13;;;9.30;99.90;;;;;;5011957;28;20061;-52
2023/04/19 01:46:17;;;;;;;16.38;9.23;;;9.30;99.90;;;;;;5012066;28;20044;-55
2023/04/19 01:48:43;;;;;;;15.20;9.73;;;9.40;99.90;;;;;;5012119;28;20034;-55
2023/04/19 01:51:08;;;;;;;16.00;8.73;;;9.30;99.90;;;;;;5012014;28;20050;-53
2023/04/19 01:53:34;;;;;;;15.13;9.07;;;9.40;99.90;;;;;;5011660;28;20044;-57
2023/04/19 01:56:00;;;;;;;13.85;9.05;;;9.40;99.90;;;;;;5010821;28;20037;-55
2023/04/19 01:58:25;;;;;;;15.07;8.85;;;9.30;99.90;;;;;;5011465;28;20054;-56
2023/04/19 02:00:51;;;;;;;15.25;9.48;;;9.50;99.90;;;;;;5012019;28;20050;-56
2023/04/19 02:03:17;;;;;;;12.50;8.02;;;9.30;99.90;;;;;;5011520;28;20041;-55
2023/04/19 02:05:42;;;;;;;14.45;8.40;;;9.30;99.90;;;;;;5012068;28;20070;-59
2023/04/19 02:08:08;;;;;;;14.23;8.35;;;9.30;99.90;;;;;;5011737;28;20064;-58
2023/04/19 02:10:34;;;;;;;14.57;8.40;;;9.60;99.90;;;;;;5012008;28;21650;-54
2023/04/19 02:13:00;;;;;;;12.82;7.90;;;9.20;99.90;;;;;;5011782;28;20034;-55
2023/04/19 02:15:26;;;;;;;13.95;8.10;;;9.30;99.90;;;;;;5011786;28;20045;-53
2023/04/19 02:17:51;;;;;;;10.45;7.43;;;9.30;99.90;;;;;;5011449;28;20103;-56
2023/04/19 02:20:17;;;;;;;13.25;8.07;;;9.30;99.90;;;;;;5010506;28;20508;-55
2023/04/19 02:22:43;;;;;;;11.82;7.28;;;9.30;99.90;;;;;;5010609;28;20033;-54
2023/04/19 02:25:09;;;;;;;12.60;7.30;;;9.30;99.90;;;;;;5011660;28;20026;-56
2023/04/19 02:27:35;;;;;;;15.27;8.10;;;9.30;99.90;;;;;;5011427;28;20127;-56
2023/04/19 02:30:00;;;;;;;11.88;6.63;;;9.30;99.90;;;;;;5010047;28;20501;-56
2023/04/19 02:32:26;;;;;;;14.05;7.50;;;9.20;99.90;;;;;;5012111;28;20406;-56
2023/04/19 02:34:52;;;;;;;12.68;7.38;;;9.20;99.90;;;;;;5011782;28;20034;-55
2023/04/19 02:37:17;;;;;;;14.48;7.10;;;9.20;99.90;;;;;;5011263;28;20096;-57
2023/04/19 02:39:44;;;;;;;11.80;6.95;;;9.20;99.90;;;;;;5011209;28;20047;-56
2023/04/19 02:42:10;;;;;;;14.45;7.05;;;9.10;99.90;;;;;;5018364;28;20493;-57
2023/04/19 02:44:36;;;;;;;10.70;6.82;;;9.10;99.90;;;;;;5011247;28;20057;-55
2023/04/19 02:47:01;;;;;;;11.50;6.97;;;9.10;99.90;;;;;;5011659;28;20437;-54
2023/04/19 02:49:35;;;;;;;13.70;6.88;;;9.10;99.90;;;;;;5011530;28;20440;-57
2023/04/19 02:52:01;;;;;;;10.95;6.95;;;9.10;99.90;;;;;;5011301;28;20117;-56
2023/04/19 02:54:26;;;;;;;14.40;7.10;;;9.00;99.90;;;;;;5011018;28;20125;-54
2023/04/19 02:56:52;;;;;;;12.13;6.82;;;8.90;99.90;;;;;;5009697;28;20045;-56
2023/04/19 02:59:18;;;;;;;11.15;6.90;;;9.00;99.90;;;;;;4990836;28;20646;-57
2023/04/19 03:01:43;;;;;;;11.98;7.30;;;8.90;99.90;;;;;;5010897;28;20038;-56
2023/04/19 03:04:09;;;;;;;12.35;8.40;;;8.90;99.90;;;;;;5011242;28;20117;-56
2023/04/19 03:06:35;;;;;;;11.07;6.78;;;8.90;99.90;;;;;;5003691;28;20462;-54
2023/04/19 03:09:01;;;;;;;12.23;7.03;;;9.00;99.90;;;;;;5008193;28;20073;-54
2023/04/19 03:11:26;;;;;;;11.07;6.68;;;8.90;99.90;;;;;;5009466;28;20074;-56
2023/04/19 03:13:52;;;;;;;12.55;6.32;;;8.90;99.90;;;;;;5008693;28;20046;-53
2023/04/19 03:16:18;;;;;;;12.98;7.10;;;8.90;99.90;;;;;;5009355;28;20040;-55
2023/04/19 03:18:43;;;;;;;13.07;6.35;;;8.90;99.90;;;;;;5009127;28;20038;-56
2023/04/19 03:21:09;;;;;;;10.75;6.38;;;8.80;99.90;;;;;;5010202;28;20444;-54
2023/04/19 03:23:35;;;;;;;14.57;6.75;;;8.80;99.90;;;;;;5008730;28;20069;-55
2023/04/19 03:26:00;;;;;;;11.88;6.13;;;8.80;99.90;;;;;;5009571;28;20053;-58
2023/04/19 03:28:26;;;;;;;12.00;6.82;;;8.80;99.90;;;;;;5011163;28;20091;-52
2023/04/19 03:30:52;;;;;;;13.55;6.90;;;8.80;99.90;;;;;;5010776;28;20042;-57
2023/04/19 03:33:18;;;;;;;12.27;6.32;;;8.70;99.90;;;;;;5009209;28;20044;-55
2023/04/19 03:35:44;;;;;;;12.18;5.97;;;8.60;99.90;;;;;;5010627;28;20470;-56
2023/04/19 03:38:10;;;;;;;10.73;6.25;;;8.60;99.90;;;;;;4987685;28;20037;-58
2023/04/19 03:40:38;;;;;;;11.55;6.82;;;8.50;99.90;;;;;;5009427;28;20088;-53
2023/04/19 03:43:04;;;;;;;12.05;6.55;;;8.50;99.90;;;;;;5008070;28;20136;-53
2023/04/19 03:45:30;;;;;;;10.25;6.35;;;8.50;99.90;;;;;;5009489;28;20495;-57
2023/04/19 03:47:55;;;;;;;12.32;7.10;;;8.40;99.90;;;;;;5008363;28;20581;-56
2023/04/19 03:50:21;;;;;;;11.85;6.40;;;8.30;99.90;;;;;;5009756;28;20038;-55
2023/04/19 03:52:47;;;;;;;10.98;6.40;;;8.30;99.90;;;;;;5009016;28;20049;-55
2023/04/19 03:55:12;;;;;;;14.48;6.57;;;8.30;99.90;;;;;;5010514;28;20390;-55
2023/04/19 03:57:38;;;;;;;12.35;6.75;;;8.20;99.90;;;;;;4996530;28;20042;-54
2023/04/19 04:00:08;;;;;;;11.25;6.13;;;8.20;99.90;;;;;;5008431;28;20387;-52
2023/04/19 04:02:40;;;;;;;15.27;6.90;;;8.10;99.90;;;;;;5010310;28;20045;-53
2023/04/19 04:05:06;;;;;;;11.70;6.95;;;8.20;99.90;;;;;;5010196;28;20125;-57
2023/04/19 04:07:32;;;;;;;13.80;7.32;;;8.10;99.90;;;;;;5010442;28;20042;-55
2023/04/19 04:09:58;;;;;;;15.35;6.70;;;8.00;99.90;;;;;;5010271;28;20045;-58
2023/04/19 04:12:23;;;;;;;11.95;6.35;;;8.00;99.90;;;;;;5010436;28;20034;-59
2023/04/19 04:14:49;;;;;;;11.32;6.75;;;8.10;99.90;;;;;;5010226;28;20100;-56
2023/04/19 04:17:15;;;;;;;11.85;6.30;;;7.90;99.90;;;;;;5009935;28;20038;-59
2023/04/19 04:19:40;;;;;;;11.95;6.57;;;7.90;99.90;;;;;;5010586;28;20042;-57
2023/04/19 04:22:06;;;;;;;11.68;8.75;;;8.10;99.90;;;;;;5012059;28;20536;-53
2023/04/19 04:24:41;;;;;;;12.75;6.57;;;7.70;99.90;;;;;;5012581;28;20401;-57
2023/04/19 04:27:11;;;;;;;12.68;6.53;;;7.60;99.90;;;;;;5014256;28;20474;-54
2023/04/19 04:29:37;;;;;;;12.02;6.40;;;7.60;99.90;;;;;;5012658;28;20054;-57
2023/04/19 04:32:09;;;;;;;14.25;7.10;;;7.50;99.90;;;;;;5013870;28;20042;-57
2023/04/19 04:34:36;;;;;;;12.23;6.88;;;7.50;99.90;;;;;;5012471;28;20508;-56
2023/04/19 04:37:02;;;;;;;12.77;7.05;;;7.40;99.90;;;;;;5012930;28;20492;-60
2023/04/19 04:39:28;;;;;;;12.95;7.10;;;7.40;99.90;;;;;;5013326;28;20452;-56
2023/04/19 04:41:56;;;;;;;12.88;6.28;;;7.30;99.90;;;;;;5014097;28;20488;-51
2023/04/19 04:44:22;;;;;;;11.48;6.70;;;7.40;99.90;;;;;;5013813;28;20053;-56
2023/04/19 04:46:48;;;;;;;11.45;6.63;;;7.20;99.90;;;;;;5013628;28;20048;-55
2023/04/19 04:49:14;;;;;;;13.15;6.53;;;7.20;99.90;;;;;;5013093;28;20698;-54
2023/04/19 04:51:39;;;;;;;12.85;6.00;;;7.20;99.90;;;;;;5013067;28;20038;-54
2023/04/19 04:54:05;;;;;;;11.10;6.40;;;7.20;99.90;;;;;;5013278;28;20033;-53
2023/04/19 04:56:32;;;;;;;12.23;6.47;;;7.10;99.90;;;;;;4995841;28;20054;-55
2023/04/19 04:58:58;;;;;;;9.20;5.53;;;7.10;99.90;;;;;;5012715;28;20468;-54
2023/04/19 05:01:23;;;;;;;11.80;5.93;;;7.10;99.90;;;;;;5012103;28;20038;-56
2023/04/19 05:03:50;;;;;;;11.15;5.93;;;7.10;99.90;;;;;;5013152;28;20138;-54
2023/04/19 05:06:16;;;;;;;9.90;7.88;;;7.00;99.90;;;;;;5012662;28;20042;-56
2023/04/19 05:08:43;;;;;;;11.15;5.63;;;7.00;99.90;;;;;;5011185;28;20038;-58
2023/04/19 05:11:09;;;;;;;10.88;5.22;;;7.00;99.90;;;;;;5018559;28;20042;-58
2023/04/19 05:13:35;;;;;;;12.48;6.10;;;7.00;99.90;;;;;;5012309;28;20037;-54
2023/04/19 05:16:00;;;;;;;8.80;5.22;;;7.00;99.90;;;;;;5011326;28;20046;-51
2023/04/19 05:18:26;;;;;;;10.63;5.35;;;7.00;99.90;;;;;;5011158;28;20046;-56
2023/04/19 05:20:52;;;;;;;9.27;4.93;;;7.00;99.90;;;;;;5012432;28;20118;-54
2023/04/19 05:23:17;;;;;;;9.85;5.22;;;7.00;99.90;;;;;;5012512;28;20044;-58
2023/04/19 05:25:43;;;;;;;8.65;4.80;;;7.00;99.90;;;;;;5011623;28;20049;-52
2023/04/19 05:28:09;;;;;;;8.52;4.65;;;7.00;99.90;;;;;;5012496;28;20075;-55
2023/04/19 05:30:35;;;;;;;11.93;5.38;;;7.00;99.90;;;;;;5011610;28;20599;-58
2023/04/19 05:33:00;;;;;;;9.95;4.82;;;7.00;99.90;;;;;;5012704;28;20038;-55
2023/04/19 05:35:26;;;;;;;10.90;5.18;;;7.00;99.90;;;;;;5012347;28;20658;-56
2023/04/19 05:37:52;;;;;;;9.88;4.88;;;7.00;99.90;;;;;;5012035;28;20073;-54
2023/04/19 05:40:18;;;;;;;8.20;4.50;;;7.10;99.90;;;;;;5012423;28;20049;-55
2023/04/19 05:42:44;;;;;;;11.07;4.95;;;7.10;99.90;;;;;;5012453;28;20041;-56
2023/04/19 05:45:10;;;;;;;11.63;5.03;;;7.20;99.90;;;;;;5012623;28;20477;-57
2023/04/19 05:47:36;;;;;;;10.85;5.07;;;7.20;99.90;;;;;;5012023;28;20108;-53
2023/04/19 05:50:02;;;;;;;9.07;4.85;;;7.20;99.90;;;;;;5011029;28;20108;-53
2023/04/19 05:52:28;;;;;;;10.25;5.30;;;7.20;99.90;;;;;;5008590;28;20146;-52
2023/04/19 05:54:54;;;;;;;8.80;4.25;;;7.20;99.90;;;;;;5010990;28;20029;-53
2023/04/19 05:57:20;;;;;;;9.45;4.22;;;7.20;99.90;;;;;;5010556;28;20056;-55
2023/04/19 05:59:46;;;;;;;9.10;4.60;;;7.30;99.90;;;;;;5009628;28;20052;-56
2023/04/19 06:02:11;;;;;;;9.43;5.35;;;7.30;99.90;;;;;;4992611;28;20433;-55
2023/04/19 06:04:37;;;;;;;9.27;5.00;;;7.30;99.90;;;;;;5010613;28;20099;-56
2023/04/19 06:07:03;;;;;;;9.90;4.50;;;7.30;99.90;;;;;;5010821;28;20061;-54
2023/04/19 06:09:28;;;;;;;8.13;4.10;;;7.30;99.90;;;;;;4992957;28;20042;-57
2023/04/19 06:11:55;;;;;;;7.47;4.30;;;7.40;99.90;;;;;;5010526;28;20037;-57
2023/04/19 06:14:21;;;;;;;9.27;4.80;;;7.40;99.90;;;;;;4993454;28;20042;-57
2023/04/19 06:16:47;;;;;;;10.73;5.10;;;7.40;99.90;;;;;;5009944;28;20042;-55
2023/04/19 06:19:12;;;;;;;8.13;4.20;;;7.40;99.90;;;;;;5009843;28;20045;-55
2023/04/19 06:21:38;;;;;;;11.90;4.88;;;7.40;99.90;;;;;;5011004;28;20089;-55
2023/04/19 06:24:06;;;;;;;8.82;4.43;;;7.70;99.90;;;;;;5005032;28;20509;-56
2023/04/19 06:26:31;;;;;;;7.65;3.65;;;7.50;99.90;;;;;;5006591;28;20097;-56
2023/04/19 06:28:57;;;;;;;7.05;3.55;;;7.60;99.90;;;;;;4987787;28;20046;-55
2023/04/19 06:31:23;;;;;;;10.15;3.92;;;7.60;99.90;;;;;;5000935;28;20516;-55
2023/04/19 06:33:49;;;;;;;9.23;4.18;;;7.60;99.90;;;;;;5002600;28;20561;-57
2023/04/19 06:36:15;;;;;;;7.70;3.83;;;7.60;99.90;;;;;;5006762;28;20037;-52
2023/04/19 06:38:43;;;;;;;6.95;3.60;;;7.70;99.90;;;;;;5010416;28;20108;-55
2023/04/19 06:41:09;;;;;;;7.97;3.38;;;7.70;99.90;;;;;;5010028;28;20184;-55
2023/04/19 06:43:35;;;;;;;9.32;3.45;;;7.70;99.90;;;;;;4983947;28;20038;-57
2023/04/19 06:46:03;;;;;;;7.18;3.63;;;7.80;99.90;;;;;;4977781;28;20531;-56
2023/04/19 06:48:29;;;;;;;7.28;4.35;;;7.80;99.90;;;;;;4979090;28;20051;-59
2023/04/19 06:50:55;;;;;;;6.95;3.20;;;7.90;99.90;;;;;;4977596;28;20045;-55
2023/04/19 06:53:21;;;;;;;7.03;3.03;;;8.00;99.90;;;;;;4983008;28;20030;-55
2023/04/19 06:55:47;;;;;;;7.07;3.63;;;8.00;99.90;;;;;;4977810;28;20054;-57
2023/04/19 06:58:13;;;;;;;6.50;3.35;;;8.00;99.90;;;;;;4977008;28;20473;-59
2023/04/19 07:00:39;;;;;;;7.07;3.60;;;8.10;99.90;;;;;;4975299;28;20547;-56
2023/04/19 07:03:04;;;;;;;10.82;3.50;;;8.10;99.90;;;;;;4977902;28;20447;-58
2023/04/19 07:05:30;;;;;;;9.05;3.15;;;8.20;99.90;;;;;;4977144;28;20039;-48
2023/04/19 07:07:56;;;;;;;8.43;3.63;;;8.20;99.90;;;;;;4978280;28;20091;-55
2023/04/19 07:10:22;;;;;;;9.07;3.25;;;8.20;99.90;;;;;;4978704;28;20506;-58
2023/04/19 07:12:48;;;;;;;9.93;3.47;;;8.20;99.90;;;;;;4963891;28;20042;-58
2023/04/19 07:15:13;;;;;;;7.72;3.28;;;8.30;99.90;;;;;;4975770;28;20039;-55
2023/04/19 07:17:39;;;;;;;6.72;3.13;;;8.40;99.90;;;;;;4981610;28;20050;-59
2023/04/19 07:20:06;;;;;;;7.07;3.13;;;8.60;99.90;;;;;;4980092;28;20093;-53
2023/04/19 07:22:32;;;;;;;6.05;3.28;;;8.60;99.90;;;;;;4977714;28;20057;-52
2023/04/19 07:24:58;;;;;;;6.25;3.28;;;8.60;99.90;;;;;;4977145;28;20041;-57
2023/04/19 07:27:24;;;;;;;6.32;3.10;;;8.60;99.90;;;;;;4979203;28;20027;-51
2023/04/19 07:29:51;;;;;;;6.25;2.70;;;8.70;99.90;;;;;;4980473;28;20106;-56
2023/04/19 07:32:16;;;;;;;4.53;2.65;;;8.70;99.90;;;;;;4979405;28;20405;-58
2023/04/19 07:34:42;;;;;;;6.10;2.85;;;8.80;99.90;;;;;;4960419;28;20061;-54
2023/04/19 07:37:08;;;;;;;7.43;2.80;;;8.80;99.90;;;;;;4982199;28;20043;-56
2023/04/19 07:39:33;;;;;;;4.13;2.40;;;8.90;99.90;;;;;;4961514;28;20037;-56
2023/04/19 07:42:02;;;;;;;7.25;2.13;;;8.90;99.90;;;;;;4977793;28;20386;-52
2023/04/19 07:44:27;;;;;;;5.88;2.30;;;8.90;99.90;;;;;;4978414;28;20042;-58
2023/04/19 07:46:53;;;;;;;4.93;2.30;;;9.00;99.90;;;;;;4981483;28;20045;-58
2023/04/19 07:49:19;;;;;;;6.28;2.42;;;9.10;99.90;;;;;;4980726;28;20050;-55
2023/04/19 07:51:45;;;;;;;6.10;2.08;;;9.10;99.90;;;;;;4981454;28;20039;-57
2023/04/19 07:54:11;;;;;;;4.70;2.35;;;9.10;99.90;;;;;;4980070;28;20458;-58
2023/04/19 07:56:37;;;;;;;4.85;2.13;;;9.10;99.90;;;;;;4982145;28;20037;-57
2023/04/19 07:59:02;;;;;;;5.32;2.03;;;9.20;99.90;;;;;;5002001;28;20072;-54
2023/04/19 08:01:31;;;;;;;4.47;2.30;;;9.30;99.90;;;;;;5003992;28;20057;-55
2023/04/19 08:03:56;;;;;;;3.25;1.70;;;9.30;99.90;;;;;;5005207;28;20046;-58
2023/04/19 08:06:22;;;;;;;5.10;1.77;;;10.30;99.90;;;;;;5002363;28;20410;-56
2023/04/19 08:08:48;;;;;;;4.32;1.77;;;9.40;99.90;;;;;;5004765;28;20049;-52
2023/04/19 08:11:13;;;;;;;5.95;1.80;;;9.50;99.90;;;;;;5003500;28;20148;-56
2023/04/19 08:13:39;;;;;;;4.78;2.22;;;9.60;99.90;;;;;;5002673;28;20068;-58
2023/04/19 08:16:05;;;;;;;3.88;1.73;;;9.60;99.90;;;;;;5002854;28;20370;-55
2023/04/19 08:18:31;;;;;;;3.28;1.48;;;9.70;99.90;;;;;;5003399;28;20038;-56
2023/04/19 08:20:57;;;;;;;3.88;1.75;;;9.80;99.90;;;;;;5004484;28;20030;-54
2023/04/19 08:23:23;;;;;;;3.72;1.25;;;9.80;99.90;;;;;;5011680;28;20400;-56
2023/04/19 08:25:49;;;;;;;4.25;1.42;;;9.90;99.90;;;;;;5012636;28;20036;-56
2023/04/19 08:28:16;;;;;;;3.05;1.33;;;10.00;99.90;;;;;;5013001;28;20494;-55
2023/04/19 08:30:42;;;;;;;5.00;1.67;;;10.00;99.90;;;;;;5013880;28;20034;-56
2023/04/19 08:33:07;;;;;;;7.88;1.75;;;10.10;99.90;;;;;;5012691;28;20063;-55
2023/04/19 08:35:35;;;;;;;3.78;1.50;;;10.20;99.90;;;;;;5013245;28;20117;-57
2023/04/19 08:38:01;;;;;;;2.92;1.40;;;10.20;99.90;;;;;;5013770;28;20107;-55
2023/04/19 08:40:29;;;;;;;4.82;1.60;;;10.30;99.90;;;;;;5012486;28;20042;-60
2023/04/19 08:42:56;;;;;;;5.97;1.52;;;10.30;99.90;;;;;;5013905;28;20104;-54
2023/04/19 08:45:25;;;;;;;4.13;1.20;;;10.40;99.90;;;;;;5014137;28;20485;-56
2023/04/19 08:47:51;;;;;;;5.72;1.40;;;10.50;99.90;;;;;;5013407;28;20041;-58
2023/04/19 08:50:20;;;;;;;3.78;1.85;;;10.60;99.90;;;;;;5012109;28;20131;-57
2023/04/19 08:52:46;;;;;;;6.05;1.65;;;10.70;99.90;;;;;;5013095;28;20298;-52
2023/04/19 08:55:14;;;;;;;3.67;1.67;;;10.80;99.90;;;;;;5012824;28;20045;-56
2023/04/19 08:57:40;;;;;;;8.60;1.95;;;10.90;99.90;;;;;;5013148;28;20151;-53
2023/04/19 09:00:08;;;;;;;5.25;1.52;;;11.00;99.90;;;;;;5011422;28;20561;-55
2023/04/19 09:02:51;;;;;;;5.22;1.83;;;11.00;99.90;;;;;;4995152;28;20041;-53
2023/04/19 09:05:18;;;;;;;5.38;1.73;;;11.10;99.90;;;;;;5010347;28;20050;-56
2023/04/19 09:07:45;;;;;;;5.28;1.70;;;11.20;99.90;;;;;;5012785;28;20037;-55
2023/04/19 09:10:20;;;;;;;4.13;1.73;;;11.40;99.90;;;;;;5010811;28;20038;-58
2023/04/19 09:13:03;;;;;;;5.53;2.10;;;11.50;99.70;;;;;;5010571;28;20493;-55
2023/04/19 09:15:40;;;;;;;4.15;1.63;;;11.70;98.80;;;;;;5010012;28;20034;-57
2023/04/19 09:18:09;;;;;;;5.97;2.00;;;11.80;98.20;;;;;;5011039;28;20030;-56
2023/04/19 09:20:37;;;;;;;4.28;2.10;;;11.90;98.00;;;;;;5011877;28;20505;-57
2023/04/19 09:23:05;;;;;;;5.18;2.20;;;12.00;98.20;;;;;;5010706;28;20362;-54
2023/04/19 09:25:31;;;;;;;4.30;2.03;;;12.10;97.70;;;;;;5011999;28;20057;-57
2023/04/19 09:28:08;;;;;;;3.80;2.08;;;12.20;97.70;;;;;;5007476;28;20042;-57
2023/04/19 09:30:34;;;;;;;5.05;2.30;;;12.30;97.10;;;;;;5004509;28;20481;-55
2023/04/19 09:33:00;;;;;;;5.43;2.20;;;12.40;97.20;;;;;;5010174;28;20057;-57
2023/04/19 09:35:40;;;;;;;3.83;1.90;;;12.40;97.10;;;;;;4993170;28;20069;-52
2023/04/19 09:38:06;;;;;;;7.68;2.50;;;12.50;96.60;;;;;;5011809;28;20041;-51
2023/04/19 09:40:31;;;;;;;5.30;2.22;;;12.60;96.50;;;;;;5010311;28;20048;-55
2023/04/19 09:42:57;;;;;;;7.00;2.20;;;12.70;96.30;;;;;;5011358;28;20119;-55
2023/04/19 09:45:23;;;;;;;5.65;2.55;;;12.80;95.90;;;;;;5009677;28;20038;-56
2023/04/19 09:48:02;;;;;;;5.47;2.45;;;12.80;95.50;;;;;;5010878;28;20052;-52
2023/04/19 09:50:28;;;;;;;5.38;1.90;;;12.90;95.40;;;;;;4993941;28;20042;-55
2023/04/19 09:52:54;;;;;;;4.22;2.00;;;13.00;95.50;;;;;;4985373;28;20042;-56
2023/04/19 09:55:21;;;;;;;4.65;2.15;;;13.00;94.70;;;;;;5008128;28;20038;-59
2023/04/19 09:57:47;;;;;;;8.45;2.25;;;13.10;94.60;;;;;;4998869;28;20089;-54
2023/04/19 10:00:14;;;;;;;5.07;2.30;;;13.10;94.10;;;;;;5010745;28;20441;-54
2023/04/19 10:02:40;;;;;;;4.05;1.85;;;13.10;93.70;;;;;;5011595;28;20119;-57
2023/04/19 10:05:08;;;;;;;6.50;2.22;;;13.10;93.60;;;;;;5012532;28;20084;-57
2023/04/19 10:07:35;;;;;;;5.10;1.90;;;13.10;92.90;;;;;;5012637;28;20108;-58
2023/04/19 10:10:01;;;;;;;6.72;2.25;;;13.20;93.00;;;;;;5011726;28;20154;-54
2023/04/19 10:12:29;;;;;;;4.40;1.75;;;13.30;92.70;;;;;;5011975;28;20495;-56
2023/04/19 10:14:56;;;;;;;4.78;1.90;;;13.30;92.20;;;;;;5011702;28;20034;-56
2023/04/19 10:17:23;;;;;;;7.60;2.10;;;13.40;92.00;;;;;;5011666;28;20034;-52
2023/04/19 10:19:56;;;;;;;4.97;1.88;;;13.40;91.50;;;;;;5012009;28;20042;-55
2023/04/19 10:22:22;;;;;;;6.00;2.03;;;13.40;91.10;;;;;;5011134;28;20128;-53
2023/04/19 10:25:08;;;;;;;6.28;2.13;;;13.50;91.00;;;;;;5011680;28;20116;-54
2023/04/19 10:27:34;;;;;;;3.67;2.10;;;13.50;90.80;;;;;;5011496;28;20037;-59
2023/04/19 10:30:02;;;;;;;4.20;1.67;;;13.60;90.90;;;;;;5011276;28;20458;-59
2023/04/19 10:32:35;;;;;;;5.43;1.77;;;13.70;91.30;;;;;;5011014;28;20042;-56
2023/04/19 10:35:06;;;;;;;3.80;2.05;;;13.80;91.40;;;;;;5010747;28;20128;-56
2023/04/19 10:37:32;;;;;;;3.65;1.63;;;13.90;91.50;;;;;;5010311;28;20465;-59
2023/04/19 10:39:57;;;;;;;5.38;2.40;;;14.00;91.50;;;;;;5011684;28;20038;-56
2023/04/19 10:42:23;;;;;;;4.55;1.88;;;14.10;91.60;;;;;;5011358;28;20485;-56
2023/04/19 10:45:26;;;;;;;6.72;2.10;;;14.10;91.00;;;;;;5017656;28;20064;-60
2023/04/19 10:47:52;;;;;;;4.22;2.08;;;14.10;91.00;;;;;;5008263;28;20045;-55
2023/04/19 10:50:17;;;;;;;3.85;1.90;;;14.00;90.90;;;;;;5003644;28;20041;-56
2023/04/19 10:52:43;;;;;;;5.15;2.30;;;14.10;91.20;;;;;;5009074;28;20066;-54
2023/04/19 10:55:15;;;;;;;5.05;1.92;;;14.10;91.30;;;;;;5010112;28;20121;-58
2023/04/19 10:58:00;;;;;;;3.30;1.90;;;14.20;91.60;;;;;;5008473;28;20050;-57
2023/04/19 11:00:30;;;;;;;2.92;1.80;;;14.40;91.10;;;;;;5009034;28;20054;-57
2023/04/19 11:02:56;;;;;;;6.68;2.45;;;14.40;91.70;;;;;;5008546;28;20120;-56
2023/04/19 11:05:22;;;;;;;3.72;1.70;;;14.60;92.10;;;;;;5008459;28;20042;-58
2023/04/19 11:07:47;;;;;;;3.95;1.80;;;14.80;91.80;;;;;;5008011;28;20480;-57
2023/04/19 11:10:28;;;;;;;3.63;1.73;;;14.90;91.50;;;;;;5006133;28;20045;-59
2023/04/19 11:12:54;;;;;;;4.95;1.80;;;15.00;91.00;;;;;;5006214;28;20069;-56
2023/04/19 11:15:22;;;;;;;4.65;1.83;;;15.00;90.30;;;;;;5007054;28;20465;-57
2023/04/19 11:17:50;;;;;;;3.78;1.80;;;15.10;91.50;;;;;;5008923;28;20045;-53
2023/04/19 11:20:16;;;;;;;4.35;1.70;;;15.20;91.10;;;;;;5009071;28;20054;-55
2023/04/19 11:22:45;;;;;;;4.47;1.83;;;15.30;91.50;;;;;;5008389;28;20183;-55
2023/04/19 11:25:19;;;;;;;4.57;1.75;;;15.50;91.30;;;;;;5008572;28;20048;-57
2023/04/19 11:27:47;;;;;;;4.13;1.70;;;15.60;90.90;;;;;;5007068;28;20107;-58
2023/04/19 11:30:19;;;;;;;3.28;1.77;;;15.70;90.60;;;;;;5005878;28;20092;-57
2023/04/19 11:32:49;;;;;;;3.53;1.73;;;15.80;89.70;;;;;;5007286;28;20076;-57
2023/04/19 11:35:27;;;;;;;5.00;1.58;;;15.90;87.40;;;;;;5007432;28;20401;-57
2023/04/19 11:37:55;;;;;;;4.50;1.60;;;15.90;86.70;;;;;;5010173;28;20033;-57
2023/04/19 11:40:22;;;;;;;3.22;1.40;;;16.00;89.00;;;;;;5012062;28;20046;-58
2023/04/19 11:42:54;;;;;;;3.50;1.60;;;16.10;89.40;;;;;;5010402;28;20049;-58
2023/04/19 11:45:28;;;;;;;4.20;1.73;;;16.30;87.60;;;;;;5010654;28;20049;-59
2023/04/19 11:47:54;;;;;;;;;;;16.40;85.80;;;;;;5010421;28;20049;-55
2023/04/19 11:50:37;;;;;;;3.13;1.60;;;16.40;87.00;;;;;;5010683;28;19945;-57
2023/04/19 11:53:14;;;;;;;6.72;1.90;;;16.50;84.50;;;;;;5010365;28;20053;-55
2023/04/19 11:55:49;;;;;;;4.97;1.90;;;16.50;86.40;;;;;;5010671;28;20038;-57
2023/04/19 11:58:42;;;;;;;4.47;1.70;;;16.60;86.40;;;;;;5008050;28;20114;-57
2023/04/19 12:01:09;;;;;;;2.58;1.50;;;16.80;86.80;;;;;;5002877;28;20049;-57
2023/04/19 12:03:49;;;;;;;2.90;1.60;;;17.00;87.30;;;;;;5008391;28;20425;-57
2023/04/19 12:06:33;;;;;;;6.70;1.77;;;17.10;85.10;;;;;;5008719;28;20081;-57
2023/04/19 12:08:58;;;;;;;5.25;1.60;;;17.10;84.90;;;;;;5008613;28;20041;-55
2023/04/19 12:11:40;;;;;;;4.07;1.38;;;17.10;84.50;;;;;;5008923;28;20045;-54
2023/04/19 12:36:18;;;;;;;10.05;1.75;;;21.00;78.60;;;;;;5186127;27;20172;-58
2023/04/19 12:38:44;;;;;;;4.47;1.83;;;20.10;72.70;;;;;;5189317;27;21611;-59
2023/04/19 12:41:10;;;;;;;5.38;1.92;;;19.20;74.20;;;;;;5185924;27;20041;-58
2023/04/19 12:43:35;;;;;;;4.88;1.70;;;18.80;75.30;;;;;;5190679;27;20050;-58
2023/04/19 12:46:01;;;;;;;3.10;1.70;;;18.70;76.20;;;;;;5189081;27;20042;-57
2023/04/19 12:48:27;;;;;;;4.00;1.90;;;18.70;77.20;;;;;;5139168;27;20042;-58
2023/04/19 12:50:53;;;;;;;3.25;1.80;;;18.70;76.40;;;;;;5190011;27;20117;-57
2023/04/19 12:53:21;;;;;;;3.45;1.63;;;18.80;76.20;;;;;;5188643;27;20085;-59
2023/04/19 12:55:48;;;;;;;3.90;1.70;;;18.80;76.00;;;;;;5190264;27;20042;-59
2023/04/19 12:58:15;;;;;;;5.15;1.80;;;18.70;75.10;;;;;;5189235;27;20433;-58
2023/04/19 13:00:41;;;;;;;3.30;1.70;;;18.60;75.20;;;;;;5189501;27;20094;-59
2023/04/19 13:03:07;;;;;;;4.35;1.70;;;18.50;75.70;;;;;;5189144;27;20065;-59
2023/04/19 13:05:33;;;;;;;3.92;1.75;;;18.50;75.00;;;;;;5189071;27;20064;-58
2023/04/19 13:07:59;;;;;;;3.88;1.83;;;18.70;76.20;;;;;;5187987;27;20118;-59
2023/04/19 13:10:24;;;;;;;3.90;1.80;;;18.90;76.20;;;;;;5188407;27;20077;-58